Terminal Aerodrome Forecast
Issued by NWS Goodland, KS

Home | Current Version | Previous Version | Text Only | Print | Product List | Glossary On
Versions: 1 2 3 4 5 6 7 8 9 10 11 12
000
FTUS43 KGLD 210520
TAFGLD
TAF
KGLD 210520Z 2106/2206 17010KT P6SM SKC
     FM211100 18011KT 3/4SM BR OVC006
     FM211600 18013G20KT 3SM BR OVC010
     FM212000 18015G20KT P6SM SCT025
     FM220000 18010KT P6SM SKC=

USA.gov is the U.S. government's official web portal to all federal, state and local government web resources and services.